sensor_id;sensor_type;location;lat;lon;timestamp;pressure;altitude;pressure_sealevel;temperature;humidity
7200;BME280;3641;49.082;8.200;2023-06-14T00:01:06;99776.72;;;19.24;37.27
7200;BME280;3641;49.082;8.200;2023-06-14T00:03:32;99772.13;;;19.30;39.63
7200;BME280;3641;49.082;8.200;2023-06-14T00:05:59;99767.88;;;19.22;37.60
7200;BME280;3641;49.082;8.200;2023-06-14T00:08:25;99764.13;;;19.33;36.74
7200;BME280;3641;49.082;8.200;2023-06-14T00:10:53;99764.91;;;19.29;36.97
7200;BME280;3641;49.082;8.200;2023-06-14T00:13:19;99770.69;;;19.27;37.85
7200;BME280;3641;49.082;8.200;2023-06-14T00:15:46;99765.34;;;19.20;37.93
7200;BME280;3641;49.082;8.200;2023-06-14T00:18:13;99761.84;;;19.08;38.91
7200;BME280;3641;49.082;8.200;2023-06-14T00:20:40;99761.44;;;19.16;37.74
7200;BME280;3641;49.082;8.200;2023-06-14T00:23:07;99766.31;;;19.09;37.68
7200;BME280;3641;49.082;8.200;2023-06-14T00:25:33;99764.63;;;19.08;37.72
7200;BME280;3641;49.082;8.200;2023-06-14T00:28:01;99763.56;;;18.92;39.97
7200;BME280;3641;49.082;8.200;2023-06-14T00:30:28;99765.41;;;19.03;38.32
7200;BME280;3641;49.082;8.200;2023-06-14T00:32:55;99761.94;;;18.91;40.10
7200;BME280;3641;49.082;8.200;2023-06-14T00:35:22;99767.13;;;18.70;38.79
7200;BME280;3641;49.082;8.200;2023-06-14T00:37:48;99768.03;;;18.76;39.15
7200;BME280;3641;49.082;8.200;2023-06-14T00:40:15;99762.13;;;18.84;39.09
7200;BME280;3641;49.082;8.200;2023-06-14T00:42:41;99761.00;;;18.85;38.80
7200;BME280;3641;49.082;8.200;2023-06-14T00:45:10;99758.59;;;18.89;38.59
7200;BME280;3641;49.082;8.200;2023-06-14T00:47:37;99763.91;;;18.79;38.82
7200;BME280;3641;49.082;8.200;2023-06-14T00:50:06;99752.69;;;18.85;38.61
7200;BME280;3641;49.082;8.200;2023-06-14T00:52:33;99761.94;;;18.91;38.08
7200;BME280;3641;49.082;8.200;2023-06-14T00:55:01;99767.47;;;18.91;38.02
7200;BME280;3641;49.082;8.200;2023-06-14T00:57:27;99762.94;;;18.85;38.16
7200;BME280;3641;49.082;8.200;2023-06-14T00:59:55;99770.47;;;18.90;38.27
7200;BME280;3641;49.082;8.200;2023-06-14T01:02:23;99768.38;;;18.63;40.72
7200;BME280;3641;49.082;8.200;2023-06-14T01:04:50;99772.97;;;18.74;38.66
7200;BME280;3641;49.082;8.200;2023-06-14T01:07:25;99778.09;;;18.48;40.34
7200;BME280;3641;49.082;8.200;2023-06-14T01:10:08;99772.34;;;18.50;40.68
7200;BME280;3641;49.082;8.200;2023-06-14T01:12:44;99780.03;;;18.65;40.44
7200;BME280;3641;49.082;8.200;2023-06-14T01:15:13;99776.75;;;18.68;39.11
7200;BME280;3641;49.082;8.200;2023-06-14T01:17:42;99785.91;;;18.51;40.96
7200;BME280;3641;49.082;8.200;2023-06-14T01:20:12;99780.97;;;18.37;39.99
7200;BME280;3641;49.082;8.200;2023-06-14T01:22:50;99781.88;;;18.59;39.28
7200;BME280;3641;49.082;8.200;2023-06-14T01:25:16;99782.13;;;18.41;39.93
7200;BME280;3641;49.082;8.200;2023-06-14T01:27:47;99774.94;;;18.40;40.35
7200;BME280;3641;49.082;8.200;2023-06-14T01:30:14;99780.97;;;18.37;40.62
7200;BME280;3641;49.082;8.200;2023-06-14T01:32:41;99784.72;;;18.30;39.81
7200;BME280;3641;49.082;8.200;2023-06-14T01:35:08;99784.38;;;18.44;38.07
7200;BME280;3641;49.082;8.200;2023-06-14T01:37:35;99788.50;;;18.41;38.31
7200;BME280;3641;49.082;8.200;2023-06-14T01:40:05;99795.53;;;18.32;40.29
7200;BME280;3641;49.082;8.200;2023-06-14T01:42:34;99786.75;;;17.89;41.05
7200;BME280;3641;49.082;8.200;2023-06-14T01:45:02;99790.31;;;18.02;41.67
7200;BME280;3641;49.082;8.200;2023-06-14T01:47:29;99790.53;;;17.71;40.34
7200;BME280;3641;49.082;8.200;2023-06-14T01:49:56;99790.78;;;17.70;40.10
7200;BME280;3641;49.082;8.200;2023-06-14T01:52:23;99791.22;;;18.07;40.32
7200;BME280;3641;49.082;8.200;2023-06-14T01:54:50;99792.03;;;17.91;39.70
7200;BME280;3641;49.082;8.200;2023-06-14T01:57:19;99799.81;;;17.94;40.30
7200;BME280;3641;49.082;8.200;2023-06-14T01:59:45;99803.50;;;18.00;39.33
7200;BME280;3641;49.082;8.200;2023-06-14T02:02:13;99800.31;;;17.91;39.74
7200;BME280;3641;49.082;8.200;2023-06-14T02:04:40;99798.75;;;17.83;40.73
7200;BME280;3641;49.082;8.200;2023-06-14T02:07:07;99797.34;;;17.81;43.80
7200;BME280;3641;49.082;8.200;2023-06-14T02:09:34;99796.06;;;18.00;40.21
7200;BME280;3641;49.082;8.200;2023-06-14T02:12:00;99796.72;;;17.90;40.72
7200;BME280;3641;49.082;8.200;2023-06-14T02:14:28;99803.66;;;17.93;39.40
7200;BME280;3641;49.082;8.200;2023-06-14T02:16:55;99803.09;;;17.91;42.45
7200;BME280;3641;49.082;8.200;2023-06-14T02:19:21;99801.41;;;17.49;44.98
7200;BME280;3641;49.082;8.200;2023-06-14T02:21:48;99804.28;;;17.54;42.03
7200;BME280;3641;49.082;8.200;2023-06-14T02:24:14;99806.84;;;17.73;41.17
7200;BME280;3641;49.082;8.200;2023-06-14T02:26:41;99816.41;;;17.94;39.61
7200;BME280;3641;49.082;8.200;2023-06-14T02:29:07;99815.81;;;17.92;42.23
7200;BME280;3641;49.082;8.200;2023-06-14T02:31:37;99805.81;;;17.50;42.74
7200;BME280;3641;49.082;8.200;2023-06-14T02:34:04;99802.88;;;17.40;42.77
7200;BME280;3641;49.082;8.200;2023-06-14T02:36:30;99808.91;;;17.66;40.33
7200;BME280;3641;49.082;8.200;2023-06-14T02:38:57;99809.81;;;17.83;40.03
7200;BME280;3641;49.082;8.200;2023-06-14T02:41:24;99813.00;;;17.63;40.77
7200;BME280;3641;49.082;8.200;2023-06-14T02:43:51;99821.59;;;17.78;41.95
7200;BME280;3641;49.082;8.200;2023-06-14T02:46:18;99817.84;;;17.85;39.78
7200;BME280;3641;49.082;8.200;2023-06-14T02:48:45;99818.47;;;17.75;40.47
7200;BME280;3641;49.082;8.200;2023-06-14T02:51:12;99816.41;;;17.82;40.05
7200;BME280;3641;49.082;8.200;2023-06-14T02:53:38;99819.28;;;17.87;39.97
7200;BME280;3641;49.082;8.200;2023-06-14T02:56:05;99821.34;;;17.80;40.65
7200;BME280;3641;49.082;8.200;2023-06-14T02:58:32;99815.56;;;17.82;40.39
7200;BME280;3641;49.082;8.200;2023-06-14T03:00:59;99823.75;;;17.76;40.44
7200;BME280;3641;49.082;8.200;2023-06-14T03:03:28;99817.53;;;17.69;40.76
7200;BME280;3641;49.082;8.200;2023-06-14T03:05:57;99812.13;;;17.34;44.77
7200;BME280;3641;49.082;8.200;2023-06-14T03:08:29;99820.63;;;17.44;41.01
7200;BME280;3641;49.082;8.200;2023-06-14T03:10:56;99812.84;;;17.41;41.40
7200;BME280;3641;49.082;8.200;2023-06-14T03:13:23;99816.25;;;17.60;40.48
7200;BME280;3641;49.082;8.200;2023-06-14T03:15:49;99814.63;;;17.47;41.95
7200;BME280;3641;49.082;8.200;2023-06-14T03:18:17;99817.97;;;17.49;41.72
7200;BME280;3641;49.082;8.200;2023-06-14T03:20:44;99823.16;;;17.46;40.88
7200;BME280;3641;49.082;8.200;2023-06-14T03:23:12;99827.97;;;17.27;44.11
7200;BME280;3641;49.082;8.200;2023-06-14T03:25:38;99820.53;;;17.27;44.93
7200;BME280;3641;49.082;8.200;2023-06-14T03:28:07;99828.31;;;17.30;42.35
7200;BME280;3641;49.082;8.200;2023-06-14T03:30:34;99828.19;;;17.37;41.56
7200;BME280;3641;49.082;8.200;2023-06-14T03:33:00;99832.00;;;17.48;40.91
7200;BME280;3641;49.082;8.200;2023-06-14T03:35:28;99831.88;;;17.54;40.32
7200;BME280;3641;49.082;8.200;2023-06-14T03:37:54;99838.13;;;17.50;40.37
7200;BME280;3641;49.082;8.200;2023-06-14T03:40:22;99838.59;;;17.47;40.59
7200;BME280;3641;49.082;8.200;2023-06-14T03:42:52;99841.69;;;17.62;40.20
7200;BME280;3641;49.082;8.200;2023-06-14T03:45:18;99852.09;;;17.31;44.73
7200;BME280;3641;49.082;8.200;2023-06-14T03:47:44;99852.53;;;16.81;47.09
7200;BME280;3641;49.082;8.200;2023-06-14T03:50:11;99846.91;;;17.35;41.34
7200;BME280;3641;49.082;8.200;2023-06-14T03:52:38;99852.44;;;17.23;42.53
7200;BME280;3641;49.082;8.200;2023-06-14T03:55:05;99854.09;;;17.48;41.36
7200;BME280;3641;49.082;8.200;2023-06-14T03:57:34;99860.91;;;17.57;41.82
7200;BME280;3641;49.082;8.200;2023-06-14T04:00:00;99856.72;;;17.54;41.90
7200;BME280;3641;49.082;8.200;2023-06-14T04:02:29;99865.81;;;17.55;41.54
7200;BME280;3641;49.082;8.200;2023-06-14T04:04:56;99865.31;;;17.58;40.85
7200;BME280;3641;49.082;8.200;2023-06-14T04:07:23;99869.28;;;17.50;41.37
7200;BME280;3641;49.082;8.200;2023-06-14T04:09:50;99869.19;;;17.45;40.61
7200;BME280;3641;49.082;8.200;2023-06-14T04:12:16;99875.63;;;17.63;42.51
7200;BME280;3641;49.082;8.200;2023-06-14T04:14:44;99875.22;;;17.06;46.57
7200;BME280;3641;49.082;8.200;2023-06-14T04:17:11;99869.13;;;17.28;42.71
7200;BME280;3641;49.082;8.200;2023-06-14T04:19:37;99872.69;;;17.52;42.05
7200;BME280;3641;49.082;8.200;2023-06-14T04:22:04;99880.22;;;17.45;43.36
7200;BME280;3641;49.082;8.200;2023-06-14T04:24:31;99881.47;;;16.90;46.72
7200;BME280;3641;49.082;8.200;2023-06-14T04:27:00;99878.44;;;17.39;41.75
7200;BME280;3641;49.082;8.200;2023-06-14T04:29:26;99884.31;;;17.54;42.53
7200;BME280;3641;49.082;8.200;2023-06-14T04:31:56;99884.88;;;17.56;42.28
7200;BME280;3641;49.082;8.200;2023-06-14T04:34:25;99896.31;;;17.48;42.39
7200;BME280;3641;49.082;8.200;2023-06-14T04:36:55;99890.19;;;17.46;41.66
7200;BME280;3641;49.082;8.200;2023-06-14T04:39:22;99896.34;;;17.01;45.73
7200;BME280;3641;49.082;8.200;2023-06-14T04:41:49;99897.16;;;17.37;41.91
7200;BME280;3641;49.082;8.200;2023-06-14T04:44:18;99891.53;;;17.32;42.23
7200;BME280;3641;49.082;8.200;2023-06-14T04:46:45;99898.03;;;17.14;45.34
7200;BME280;3641;49.082;8.200;2023-06-14T04:49:13;99895.84;;;16.92;47.70
7200;BME280;3641;49.082;8.200;2023-06-14T04:51:41;99907.72;;;17.16;45.44
7200;BME280;3641;49.082;8.200;2023-06-14T04:54:07;99908.81;;;16.92;47.56
7200;BME280;3641;49.082;8.200;2023-06-14T04:56:35;99914.47;;;16.78;48.62
7200;BME280;3641;49.082;8.200;2023-06-14T04:59:02;99908.69;;;16.86;48.63
7200;BME280;3641;49.082;8.200;2023-06-14T05:01:29;99916.63;;;17.18;44.00
7200;BME280;3641;49.082;8.200;2023-06-14T05:03:57;99922.34;;;16.93;48.47
7200;BME280;3641;49.082;8.200;2023-06-14T05:06:28;99924.88;;;17.30;43.65
7200;BME280;3641;49.082;8.200;2023-06-14T05:08:55;99921.16;;;17.36;44.50
7200;BME280;3641;49.082;8.200;2023-06-14T05:11:22;99921.63;;;17.21;47.57
7200;BME280;3641;49.082;8.200;2023-06-14T05:13:49;99926.44;;;17.61;42.68
7200;BME280;3641;49.082;8.200;2023-06-14T05:16:16;99929.41;;;17.72;45.96
7200;BME280;3641;49.082;8.200;2023-06-14T05:18:44;99926.91;;;17.47;46.73
7200;BME280;3641;49.082;8.200;2023-06-14T05:21:11;99925.69;;;17.54;46.34
7200;BME280;3641;49.082;8.200;2023-06-14T05:23:39;99934.28;;;17.82;43.91
7200;BME280;3641;49.082;8.200;2023-06-14T05:26:05;99924.94;;;17.94;44.24
7200;BME280;3641;49.082;8.200;2023-06-14T05:28:31;99938.03;;;17.75;44.80
7200;BME280;3641;49.082;8.200;2023-06-14T05:30:58;99930.22;;;17.84;43.17
7200;BME280;3641;49.082;8.200;2023-06-14T05:33:25;99936.28;;;18.10;42.05
7200;BME280;3641;49.082;8.200;2023-06-14T05:35:51;99936.06;;;18.00;44.49
7200;BME280;3641;49.082;8.200;2023-06-14T05:38:18;99942.22;;;18.02;43.17
7200;BME280;3641;49.082;8.200;2023-06-14T05:40:46;99951.28;;;18.14;43.23
7200;BME280;3641;49.082;8.200;2023-06-14T05:43:12;99952.56;;;18.23;43.62
7200;BME280;3641;49.082;8.200;2023-06-14T05:45:39;99955.81;;;18.20;43.50
7200;BME280;3641;49.082;8.200;2023-06-14T05:48:05;99951.00;;;18.27;42.98
7200;BME280;3641;49.082;8.200;2023-06-14T05:50:32;99959.97;;;18.34;42.80
7200;BME280;3641;49.082;8.200;2023-06-14T05:52:58;99950.38;;;18.37;44.34
7200;BME280;3641;49.082;8.200;2023-06-14T05:55:25;99960.97;;;18.57;43.75
7200;BME280;3641;49.082;8.200;2023-06-14T05:57:53;99958.72;;;18.54;43.42
7200;BME280;3641;49.082;8.200;2023-06-14T06:00:20;99964.97;;;18.49;45.47
7200;BME280;3641;49.082;8.200;2023-06-14T06:02:47;99960.56;;;18.65;44.75
7200;BME280;3641;49.082;8.200;2023-06-14T06:05:14;99956.03;;;18.76;44.03
7200;BME280;3641;49.082;8.200;2023-06-14T06:07:41;99960.09;;;18.68;43.13
7200;BME280;3641;49.082;8.200;2023-06-14T06:10:09;99964.50;;;18.98;43.71
7200;BME280;3641;49.082;8.200;2023-06-14T06:12:36;99968.88;;;18.94;43.30
7200;BME280;3641;49.082;8.200;2023-06-14T06:15:05;99971.22;;;19.02;44.46
7200;BME280;3641;49.082;8.200;2023-06-14T06:17:33;99971.72;;;19.16;43.94
7200;BME280;3641;49.082;8.200;2023-06-14T06:20:00;99971.88;;;19.44;43.04
7200;BME280;3641;49.082;8.200;2023-06-14T06:22:27;99968.22;;;19.60;42.73
7200;BME280;3641;49.082;8.200;2023-06-14T06:24:53;99968.06;;;19.84;43.31
7200;BME280;3641;49.082;8.200;2023-06-14T06:27:20;99964.63;;;20.21;42.39
7200;BME280;3641;49.082;8.200;2023-06-14T06:29:46;99967.78;;;20.29;41.64
7200;BME280;3641;49.082;8.200;2023-06-14T06:32:15;99965.94;;;20.62;42.02
7200;BME280;3641;49.082;8.200;2023-06-14T06:34:41;99963.53;;;20.98;41.26
7200;BME280;3641;49.082;8.200;2023-06-14T06:37:07;99972.94;;;21.30;40.37
7200;BME280;3641;49.082;8.200;2023-06-14T06:39:34;99963.13;;;23.63;35.69
7200;BME280;3641;49.082;8.200;2023-06-14T06:42:01;99973.88;;;24.71;33.94
7200;BME280;3641;49.082;8.200;2023-06-14T06:44:27;99973.28;;;24.74;33.44
7200;BME280;3641;49.082;8.200;2023-06-14T06:46:54;99979.47;;;24.11;34.60
7200;BME280;3641;49.082;8.200;2023-06-14T06:49:21;99985.69;;;23.56;35.35
7200;BME280;3641;49.082;8.200;2023-06-14T06:51:59;99979.31;;;23.46;35.27
7200;BME280;3641;49.082;8.200;2023-06-14T06:54:26;99983.72;;;22.95;36.56
7200;BME280;3641;49.082;8.200;2023-06-14T06:56:53;99992.84;;;22.60;37.01
7200;BME280;3641;49.082;8.200;2023-06-14T06:59:19;99994.06;;;21.68;38.41
7200;BME280;3641;49.082;8.200;2023-06-14T07:01:46;99999.38;;;21.37;39.18
7200;BME280;3641;49.082;8.200;2023-06-14T07:04:13;100004.00;;;21.27;39.56
7200;BME280;3641;49.082;8.200;2023-06-14T07:06:41;100003.44;;;20.92;39.97
7200;BME280;3641;49.082;8.200;2023-06-14T07:09:08;100007.47;;;20.79;39.92
7200;BME280;3641;49.082;8.200;2023-06-14T07:11:38;100008.88;;;20.60;40.50
7200;BME280;3641;49.082;8.200;2023-06-14T07:14:04;100016.00;;;20.50;40.54
7200;BME280;3641;49.082;8.200;2023-06-14T07:16:31;100013.41;;;20.66;40.69
7200;BME280;3641;49.082;8.200;2023-06-14T07:18:57;100013.03;;;20.57;40.29
7200;BME280;3641;49.082;8.200;2023-06-14T07:21:24;100022.75;;;20.60;40.34
7200;BME280;3641;49.082;8.200;2023-06-14T07:23:52;100024.19;;;20.40;41.17
7200;BME280;3641;49.082;8.200;2023-06-14T07:26:19;100020.28;;;20.36;41.04
7200;BME280;3641;49.082;8.200;2023-06-14T07:28:46;100025.72;;;20.53;40.81
7200;BME280;3641;49.082;8.200;2023-06-14T07:31:12;100019.91;;;20.55;40.79
7200;BME280;3641;49.082;8.200;2023-06-14T07:33:40;100023.81;;;20.54;40.69
7200;BME280;3641;49.082;8.200;2023-06-14T07:36:07;100031.22;;;20.70;40.49
7200;BME280;3641;49.082;8.200;2023-06-14T07:38:34;100032.78;;;20.88;40.22
7200;BME280;3641;49.082;8.200;2023-06-14T07:41:03;100033.16;;;20.70;40.67
7200;BME280;3641;49.082;8.200;2023-06-14T07:43:29;100032.50;;;20.62;40.89
7200;BME280;3641;49.082;8.200;2023-06-14T07:45:56;100035.69;;;20.71;40.10
7200;BME280;3641;49.082;8.200;2023-06-14T07:48:23;100031.13;;;20.87;39.90
7200;BME280;3641;49.082;8.200;2023-06-14T07:50:49;100027.94;;;20.73;40.91
7200;BME280;3641;49.082;8.200;2023-06-14T07:53:16;100033.53;;;20.78;41.13
7200;BME280;3641;49.082;8.200;2023-06-14T07:55:46;100024.91;;;20.75;41.19
7200;BME280;3641;49.082;8.200;2023-06-14T07:58:17;100032.75;;;20.83;40.31
7200;BME280;3641;49.082;8.200;2023-06-14T08:00:43;100020.38;;;20.96;41.00
7200;BME280;3641;49.082;8.200;2023-06-14T08:03:11;100027.19;;;21.10;39.98
7200;BME280;3641;49.082;8.200;2023-06-14T08:05:37;100014.41;;;21.09;40.28
7200;BME280;3641;49.082;8.200;2023-06-14T08:08:04;100024.91;;;21.02;40.20
7200;BME280;3641;49.082;8.200;2023-06-14T08:10:30;100010.34;;;21.22;39.68
7200;BME280;3641;49.082;8.200;2023-06-14T08:12:57;100024.63;;;21.36;39.36
7200;BME280;3641;49.082;8.200;2023-06-14T08:15:25;100017.69;;;21.33;40.12
7200;BME280;3641;49.082;8.200;2023-06-14T08:17:51;100015.81;;;21.44;39.60
7200;BME280;3641;49.082;8.200;2023-06-14T08:20:17;100015.69;;;21.29;39.53
7200;BME280;3641;49.082;8.200;2023-06-14T08:22:44;100028.09;;;21.48;39.56
7200;BME280;3641;49.082;8.200;2023-06-14T08:25:13;100033.78;;;21.64;39.04
7200;BME280;3641;49.082;8.200;2023-06-14T08:27:40;100036.47;;;21.53;38.62
7200;BME280;3641;49.082;8.200;2023-06-14T08:30:08;100031.44;;;21.50;38.68
7200;BME280;3641;49.082;8.200;2023-06-14T08:32:36;100033.13;;;21.51;38.70
7200;BME280;3641;49.082;8.200;2023-06-14T08:35:03;100033.19;;;21.62;38.75
7200;BME280;3641;49.082;8.200;2023-06-14T08:37:31;100039.34;;;21.64;38.07
7200;BME280;3641;49.082;8.200;2023-06-14T08:39:58;100042.75;;;21.76;38.44
7200;BME280;3641;49.082;8.200;2023-06-14T08:42:25;100031.72;;;21.86;38.04
7200;BME280;3641;49.082;8.200;2023-06-14T08:44:51;100028.94;;;21.86;38.03
7200;BME280;3641;49.082;8.200;2023-06-14T08:47:18;100033.44;;;21.98;38.25
7200;BME280;3641;49.082;8.200;2023-06-14T08:49:47;100028.72;;;22.03;37.85
7200;BME280;3641;49.082;8.200;2023-06-14T08:52:15;100029.59;;;22.04;37.84
7200;BME280;3641;49.082;8.200;2023-06-14T08:54:46;100031.31;;;22.15;37.80
7200;BME280;3641;49.082;8.200;2023-06-14T08:57:14;100030.78;;;22.23;37.45
7200;BME280;3641;49.082;8.200;2023-06-14T08:59:46;100029.16;;;22.27;37.57
7200;BME280;3641;49.082;8.200;2023-06-14T09:02:14;100028.63;;;22.30;37.63
7200;BME280;3641;49.082;8.200;2023-06-14T09:04:43;100035.31;;;22.29;37.85
7200;BME280;3641;49.082;8.200;2023-06-14T09:07:11;100028.56;;;22.20;37.84
7200;BME280;3641;49.082;8.200;2023-06-14T09:09:41;100028.41;;;22.42;37.17
7200;BME280;3641;49.082;8.200;2023-06-14T09:12:08;100020.34;;;22.46;37.56
7200;BME280;3641;49.082;8.200;2023-06-14T09:14:37;100025.97;;;22.61;36.61
7200;BME280;3641;49.082;8.200;2023-06-14T09:17:06;100022.38;;;22.61;36.62
7200;BME280;3641;49.082;8.200;2023-06-14T09:19:33;100024.84;;;22.62;37.21
7200;BME280;3641;49.082;8.200;2023-06-14T09:22:00;100027.66;;;22.67;37.50
7200;BME280;3641;49.082;8.200;2023-06-14T09:24:27;100023.50;;;22.75;36.67
7200;BME280;3641;49.082;8.200;2023-06-14T09:26:54;100021.28;;;22.77;36.83
7200;BME280;3641;49.082;8.200;2023-06-14T09:29:20;100026.03;;;22.97;36.93
7200;BME280;3641;49.082;8.200;2023-06-14T09:31:47;100028.03;;;23.28;36.28
7200;BME280;3641;49.082;8.200;2023-06-14T09:34:16;100024.13;;;23.13;36.62
7200;BME280;3641;49.082;8.200;2023-06-14T09:36:43;100036.13;;;23.24;36.44
7200;BME280;3641;49.082;8.200;2023-06-14T09:39:10;100036.97;;;23.19;35.62
7200;BME280;3641;49.082;8.200;2023-06-14T09:41:39;100039.75;;;23.30;35.61
7200;BME280;3641;49.082;8.200;2023-06-14T09:44:07;100046.44;;;23.34;35.51
7200;BME280;3641;49.082;8.200;2023-06-14T09:46:35;100047.28;;;23.45;34.97
7200;BME280;3641;49.082;8.200;2023-06-14T09:49:02;100045.88;;;23.68;35.36
7200;BME280;3641;49.082;8.200;2023-06-14T09:51:29;100047.84;;;23.57;34.56
7200;BME280;3641;49.082;8.200;2023-06-14T09:53:59;100041.41;;;23.51;34.33
7200;BME280;3641;49.082;8.200;2023-06-14T09:56:27;100042.22;;;23.83;33.22
7200;BME280;3641;49.082;8.200;2023-06-14T09:58:57;100034.16;;;23.91;33.49
7200;BME280;3641;49.082;8.200;2023-06-14T10:01:24;100040.59;;;23.92;32.89
7200;BME280;3641;49.082;8.200;2023-06-14T10:03:55;100040.88;;;23.90;33.29
7200;BME280;3641;49.082;8.200;2023-06-14T10:06:23;100034.94;;;24.07;32.32
7200;BME280;3641;49.082;8.200;2023-06-14T10:08:52;100046.13;;;24.13;33.25
7200;BME280;3641;49.082;8.200;2023-06-14T10:11:21;100043.22;;;24.33;33.14
7200;BME280;3641;49.082;8.200;2023-06-14T10:13:48;100042.38;;;24.38;31.89
7200;BME280;3641;49.082;8.200;2023-06-14T10:16:19;100047.69;;;24.44;32.92
7200;BME280;3641;49.082;8.200;2023-06-14T10:18:49;100038.69;;;24.63;33.59
7200;BME280;3641;49.082;8.200;2023-06-14T10:21:22;100032.72;;;24.80;32.29
7200;BME280;3641;49.082;8.200;2023-06-14T10:23:52;100030.09;;;24.94;31.72
7200;BME280;3641;49.082;8.200;2023-06-14T10:26:20;100025.59;;;25.03;30.78
7200;BME280;3641;49.082;8.200;2023-06-14T10:28:57;100032.31;;;25.02;32.15
7200;BME280;3641;49.082;8.200;2023-06-14T10:31:40;100014.13;;;25.05;32.03
7200;BME280;3641;49.082;8.200;2023-06-14T10:34:07;100016.81;;;25.20;32.25
7200;BME280;3641;49.082;8.200;2023-06-14T10:36:34;100019.53;;;25.30;33.14
7200;BME280;3641;49.082;8.200;2023-06-14T10:39:05;100016.22;;;25.28;32.60
7200;BME280;3641;49.082;8.200;2023-06-14T10:41:35;100006.38;;;25.36;31.52
7200;BME280;3641;49.082;8.200;2023-06-14T10:47:24;100015.34;;;25.33;30.64
7200;BME280;3641;49.082;8.200;2023-06-14T10:49:52;100017.41;;;25.17;31.80
7200;BME280;3641;49.082;8.200;2023-06-14T10:52:25;100022.00;;;24.97;31.65
7200;BME280;3641;49.082;8.200;2023-06-14T10:55:07;100021.00;;;25.17;33.37
7200;BME280;3641;49.082;8.200;2023-06-14T10:57:39;100025.78;;;25.17;33.85
7200;BME280;3641;49.082;8.200;2023-06-14T11:00:07;100016.81;;;25.20;33.54
7200;BME280;3641;49.082;8.200;2023-06-14T11:05:42;100014.25;;;25.24;32.74
7200;BME280;3641;49.082;8.200;2023-06-14T11:11:22;100020.28;;;25.07;31.13
7200;BME280;3641;49.082;8.200;2023-06-14T11:13:50;100017.25;;;24.98;33.42
7200;BME280;3641;49.082;8.200;2023-06-14T11:16:17;100013.84;;;25.06;32.95
7200;BME280;3641;49.082;8.200;2023-06-14T11:18:46;100009.81;;;25.23;32.60
7200;BME280;3641;49.082;8.200;2023-06-14T11:21:15;99999.75;;;25.22;29.97
7200;BME280;3641;49.082;8.200;2023-06-14T11:23:48;100000.72;;;25.07;31.42
7200;BME280;3641;49.082;8.200;2023-06-14T11:26:15;100007.34;;;25.16;29.96
7200;BME280;3641;49.082;8.200;2023-06-14T11:28:41;100008.09;;;24.92;29.74
7200;BME280;3641;49.082;8.200;2023-06-14T11:31:09;100008.75;;;24.74;29.69
7200;BME280;3641;49.082;8.200;2023-06-14T11:33:35;100011.41;;;24.94;30.53
7200;BME280;3641;49.082;8.200;2023-06-14T11:36:05;100010.69;;;25.18;30.00
7200;BME280;3641;49.082;8.200;2023-06-14T11:38:35;100019.84;;;25.24;31.48
7200;BME280;3641;49.082;8.200;2023-06-14T11:41:02;100020.88;;;25.38;32.20
7200;BME280;3641;49.082;8.200;2023-06-14T11:43:29;100017.09;;;25.18;30.67
7200;BME280;3641;49.082;8.200;2023-06-14T11:45:57;100000.28;;;25.29;29.92
7200;BME280;3641;49.082;8.200;2023-06-14T11:48:23;99988.81;;;25.25;29.39
7200;BME280;3641;49.082;8.200;2023-06-14T11:50:50;99992.31;;;25.46;29.19
7200;BME280;3641;49.082;8.200;2023-06-14T11:53:18;99992.50;;;25.55;31.51
7200;BME280;3641;49.082;8.200;2023-06-14T11:55:45;99981.53;;;25.34;31.00
7200;BME280;3641;49.082;8.200;2023-06-14T11:58:12;99985.41;;;24.99;28.06
7200;BME280;3641;49.082;8.200;2023-06-14T12:00:39;99999.81;;;25.11;28.08
7200;BME280;3641;49.082;8.200;2023-06-14T12:03:07;99989.97;;;25.29;30.37
7200;BME280;3641;49.082;8.200;2023-06-14T12:05:33;99994.28;;;25.46;28.69
7200;BME280;3641;49.082;8.200;2023-06-14T12:08:02;100003.53;;;25.41;28.58
7200;BME280;3641;49.082;8.200;2023-06-14T12:10:41;99989.44;;;25.56;30.70
7200;BME280;3641;49.082;8.200;2023-06-14T12:13:09;99992.97;;;25.67;29.65
7200;BME280;3641;49.082;8.200;2023-06-14T12:15:35;99997.63;;;25.72;27.55
7200;BME280;3641;49.082;8.200;2023-06-14T12:18:05;99995.09;;;25.76;28.72
7200;BME280;3641;49.082;8.200;2023-06-14T12:20:33;99990.28;;;25.81;29.17
7200;BME280;3641;49.082;8.200;2023-06-14T12:23:03;99998.28;;;25.93;30.17
7200;BME280;3641;49.082;8.200;2023-06-14T12:25:31;100001.47;;;26.10;29.08
7200;BME280;3641;49.082;8.200;2023-06-14T12:28:04;99991.25;;;25.96;29.80
7200;BME280;3641;49.082;8.200;2023-06-14T12:30:32;99995.97;;;26.00;29.32
7200;BME280;3641;49.082;8.200;2023-06-14T12:32:58;99987.78;;;26.09;29.03
7200;BME280;3641;49.082;8.200;2023-06-14T12:35:25;99997.59;;;26.06;29.17
7200;BME280;3641;49.082;8.200;2023-06-14T12:37:52;99977.47;;;26.04;28.00
7200;BME280;3641;49.082;8.200;2023-06-14T12:40:19;99992.47;;;26.14;27.68
7200;BME280;3641;49.082;8.200;2023-06-14T12:42:45;99980.06;;;26.20;30.54
7200;BME280;3641;49.082;8.200;2023-06-14T12:45:14;99981.38;;;26.27;28.78
7200;BME280;3641;49.082;8.200;2023-06-14T12:47:40;99986.63;;;26.10;28.03
7200;BME280;3641;49.082;8.200;2023-06-14T12:50:07;99990.84;;;26.32;28.19
7200;BME280;3641;49.082;8.200;2023-06-14T12:52:34;99987.03;;;26.22;28.01
7200;BME280;3641;49.082;8.200;2023-06-14T12:55:01;99988.81;;;26.37;28.19
7200;BME280;3641;49.082;8.200;2023-06-14T12:57:29;99993.75;;;26.45;27.94
7200;BME280;3641;49.082;8.200;2023-06-14T12:59:55;99989.84;;;26.22;26.93
7200;BME280;3641;49.082;8.200;2023-06-14T13:02:23;99998.06;;;26.14;27.47
7200;BME280;3641;49.082;8.200;2023-06-14T13:04:51;99997.16;;;26.18;26.98
7200;BME280;3641;49.082;8.200;2023-06-14T13:07:17;99995.97;;;26.00;28.25
7200;BME280;3641;49.082;8.200;2023-06-14T13:09:44;99991.09;;;26.11;29.42
7200;BME280;3641;49.082;8.200;2023-06-14T13:12:10;99988.41;;;26.25;29.67
7200;BME280;3641;49.082;8.200;2023-06-14T13:14:37;99989.16;;;26.31;29.26
7200;BME280;3641;49.082;8.200;2023-06-14T13:17:05;99969.72;;;26.20;26.73
7200;BME280;3641;49.082;8.200;2023-06-14T13:19:33;99982.50;;;26.02;26.95
7200;BME280;3641;49.082;8.200;2023-06-14T13:22:00;99992.75;;;26.36;29.50
7200;BME280;3641;49.082;8.200;2023-06-14T13:24:26;99982.28;;;26.23;30.28
7200;BME280;3641;49.082;8.200;2023-06-14T13:26:53;99978.84;;;26.31;28.38
7200;BME280;3641;49.082;8.200;2023-06-14T13:29:20;99994.09;;;26.39;27.63